M/V Tuna — XUGC9 — position and weather

sailwx.info

Track history (hours):
 
Tides and Currents Weather Stations Pressure Air Temp Water Temp Dewpoint Dewpoint Depression Visibility Wind Speed Wind Dir Waves Ship Positions

M/V Tuna

Last reported at 2015-Sep-01 05:04 UTC. Time now 2015-Sep-02 10:38 UTC.
Position N 46°05' E 030°28'.

Length 114 m; draft 2.4 m.

Type: Cargo ship. MMSI: 514778000.

Date/timePositionNaut miles runAvg speedWind from/ knotsBaromVisibWave heightAir tempDewpointWater temp
2015-Sep-01 05:04N 46°05' E 030°28'2 4.3
2015-Sep-01 04:30N 46°05' E 030°31'1 0.6
2015-Sep-01 03:33N 46°05' E 030°31'0 0.0
2015-Sep-01 00:32N 46°05' E 030°31'0 0.0
2015-Aug-31 22:28N 46°05' E 030°31'0 0.0
2015-Aug-31 21:28N 46°05' E 030°31'1 0.4
2015-Aug-31 18:33N 46°04' E 030°31'8 7.2
2015-Aug-31 17:27N 45°57' E 030°27'7 7.6
2015-Aug-31 16:33N 45°50' E 030°24'18 7.3
2015-Aug-31 14:08N 45°34' E 030°15'  
2015-Aug-29 03:18N 40°52' E 029°11'0 0.0
2015-Aug-29 02:29N 40°52' E 029°11'0 0.0
2015-Aug-29 01:29N 40°52' E 029°11'0 0.0
2015-Aug-28 23:30N 40°52' E 029°11'4 4.4
2015-Aug-28 22:33N 40°48' E 029°12'7 7.0
2015-Aug-28 21:33N 40°45' E 029°20'  
2015-Aug-26 03:19N 40°46' E 029°27'0 0.0
2015-Aug-26 02:26N 40°46' E 029°27'0 0.0
2015-Aug-26 01:29N 40°46' E 029°27'2 2.5
2015-Aug-26 00:33N 40°45' E 029°24'6 6.1
2015-Aug-25 23:33N 40°45' E 029°16'9 6.1
2015-Aug-25 22:09N 40°49' E 029°06'4 5.8
2015-Aug-25 21:28N 40°50' E 029°01'6 6.0
2015-Aug-25 20:32N 40°55' E 028°56'  
Track history (hours):
 
Tides and Currents Weather Stations Pressure Air Temp Water Temp Dewpoint Dewpoint Depression Visibility Wind Speed Wind Dir Waves Ship Positions

M/V Tuna

Last reported at 2015-Sep-01 05:04 UTC. Time now 2015-Sep-02 10:38 UTC.
Position N 46°05' E 030°28'.

Length 114 m; draft 2.4 m.

Type: Cargo ship. MMSI: 514778000.

Date/timePositionNaut miles runAvg speedWind from/ knotsBaromVisibWave heightAir tempDewpointWater temp
2015-Sep-01 05:04N 46°05' E 030°28'2 4.3
2015-Sep-01 04:30N 46°05' E 030°31'1 0.6
2015-Sep-01 03:33N 46°05' E 030°31'0 0.0
2015-Sep-01 00:32N 46°05' E 030°31'0 0.0
2015-Aug-31 22:28N 46°05' E 030°31'0 0.0
2015-Aug-31 21:28N 46°05' E 030°31'1 0.4
2015-Aug-31 18:33N 46°04' E 030°31'8 7.2
2015-Aug-31 17:27N 45°57' E 030°27'7 7.6
2015-Aug-31 16:33N 45°50' E 030°24'18 7.3
2015-Aug-31 14:08N 45°34' E 030°15'  
2015-Aug-29 03:18N 40°52' E 029°11'0 0.0
2015-Aug-29 02:29N 40°52' E 029°11'0 0.0
2015-Aug-29 01:29N 40°52' E 029°11'0 0.0
2015-Aug-28 23:30N 40°52' E 029°11'4 4.4
2015-Aug-28 22:33N 40°48' E 029°12'7 7.0
2015-Aug-28 21:33N 40°45' E 029°20'  
2015-Aug-26 03:19N 40°46' E 029°27'0 0.0
2015-Aug-26 02:26N 40°46' E 029°27'0 0.0
2015-Aug-26 01:29N 40°46' E 029°27'2 2.5
2015-Aug-26 00:33N 40°45' E 029°24'6 6.1
2015-Aug-25 23:33N 40°45' E 029°16'9 6.1
2015-Aug-25 22:09N 40°49' E 029°06'4 5.8
2015-Aug-25 21:28N 40°50' E 029°01'6 6.0
2015-Aug-25 20:32N 40°55' E 028°56'  

Dump ship's entire track history